Ana Sayfa
METAR-TAF:

METAR-TAF

Havaalanları :

Kerpe, Yunanistan

Enlem: 35-24-51N, Boylam: 027-08-54E, yükseklik: 6 m

Güncel hava durumu gözlemi

Rapor saat 15:20 UTC de 18 dakika önce yapıldı.
Rüzgar kuzeybatıdan 17 kt
Sıcaklık 24°C
Nem 74%
Basınç 1009 hPa
Görüş mesafesi 10 km veya daha fazla
1800 ft yükseklikte parçalı bulutlu

METAR: LGKP 261520Z 31017KT 9999 SCT018 24/19 Q1009

Saat: 18:38 (15:38 UTC)


TAF: eksik

4.000'den fazla havaalanı için hava durumu gözlemleri ve tahminleri (METAR ve TAF raporları).

Kullanılabilir istasyonlar harita üzerinde sarı ve kırmızı noktalarla gösterilir.

İstasyonun adını görmek için fareyi noktanın üzerinde gezdirin.

Sonrasında hava gözlem ve tahminlerini görmek için tıklayın.

Haritayı değiştirmek için: yaklaştırmak için siyah artı işaretli yeşil düğmeye ve uzaklaştırmak için de eksi işaretli düğmeye hızla tıklayın; bitişik haritalar için yeşil okları kullanın.


METAR-TAF: